sensor_id;sensor_type;location;lat;lon;timestamp;pressure;altitude;pressure_sealevel;temperature;humidity
10466;BME280;5280;42.600;23.556;2023-04-07T00:01:37;93131.69;;;1.63;72.89
10466;BME280;5280;42.600;23.556;2023-04-07T00:04:04;93126.00;;;1.55;72.77
10466;BME280;5280;42.600;23.556;2023-04-07T00:06:32;93144.09;;;1.58;73.67
10466;BME280;5280;42.600;23.556;2023-04-07T00:08:59;93131.44;;;1.51;74.04
10466;BME280;5280;42.600;23.556;2023-04-07T00:11:25;93135.97;;;1.47;74.79
10466;BME280;5280;42.600;23.556;2023-04-07T00:13:55;93122.50;;;1.39;75.15
10466;BME280;5280;42.600;23.556;2023-04-07T00:16:22;93147.28;;;1.46;74.66
10466;BME280;5280;42.600;23.556;2023-04-07T00:18:49;93141.34;;;1.44;73.77
10466;BME280;5280;42.600;23.556;2023-04-07T00:21:16;93118.03;;;1.24;74.31
10466;BME280;5280;42.600;23.556;2023-04-07T00:23:44;93138.69;;;1.27;73.83
10466;BME280;5280;42.600;23.556;2023-04-07T00:26:11;93132.84;;;1.22;75.32
10466;BME280;5280;42.600;23.556;2023-04-07T00:28:38;93127.09;;;1.15;75.81
10466;BME280;5280;42.600;23.556;2023-04-07T00:31:05;93129.63;;;1.17;77.08
10466;BME280;5280;42.600;23.556;2023-04-07T00:33:32;93125.50;;;1.13;76.37
10466;BME280;5280;42.600;23.556;2023-04-07T00:35:58;93127.53;;;1.06;77.15
10466;BME280;5280;42.600;23.556;2023-04-07T00:38:25;93131.66;;;1.10;77.27
10466;BME280;5280;42.600;23.556;2023-04-07T00:40:57;93124.25;;;1.03;77.95
10466;BME280;5280;42.600;23.556;2023-04-07T00:43:24;93106.75;;;0.88;75.60
10466;BME280;5280;42.600;23.556;2023-04-07T00:45:52;93126.91;;;1.01;77.40
10466;BME280;5280;42.600;23.556;2023-04-07T00:48:19;93127.91;;;0.99;78.10
10466;BME280;5280;42.600;23.556;2023-04-07T00:50:46;93121.19;;;0.95;78.92
10466;BME280;5280;42.600;23.556;2023-04-07T00:53:13;93125.53;;;0.94;78.11
10466;BME280;5280;42.600;23.556;2023-04-07T00:55:39;93113.88;;;0.84;79.02
10466;BME280;5280;42.600;23.556;2023-04-07T00:58:08;93130.00;;;0.91;79.82
10466;BME280;5280;42.600;23.556;2023-04-07T01:00:37;93059.28;;;0.47;79.17
10466;BME280;5280;42.600;23.556;2023-04-07T01:03:09;93095.75;;;0.64;76.43
10466;BME280;5280;42.600;23.556;2023-04-07T01:05:45;93109.69;;;0.80;76.21
10466;BME280;5280;42.600;23.556;2023-04-07T01:08:16;93125.53;;;0.94;77.28
10466;BME280;5280;42.600;23.556;2023-04-07T01:10:51;93128.03;;;0.96;79.09
10466;BME280;5280;42.600;23.556;2023-04-07T01:13:25;93071.50;;;0.63;79.08
10466;BME280;5280;42.600;23.556;2023-04-07T01:15:54;93054.66;;;0.53;80.38
10466;BME280;5280;42.600;23.556;2023-04-07T01:18:26;93128.19;;;0.93;80.87
10466;BME280;5280;42.600;23.556;2023-04-07T01:20:59;93123.84;;;0.93;78.75
10466;BME280;5280;42.600;23.556;2023-04-07T01:23:39;93120.22;;;0.96;78.64
10466;BME280;5280;42.600;23.556;2023-04-07T01:26:19;93120.31;;;0.94;78.25
10466;BME280;5280;42.600;23.556;2023-04-07T01:28:56;93108.28;;;0.92;77.94
10466;BME280;5280;42.600;23.556;2023-04-07T01:31:31;93101.91;;;0.80;77.02
10466;BME280;5280;42.600;23.556;2023-04-07T01:34:01;93109.50;;;0.84;78.11
10466;BME280;5280;42.600;23.556;2023-04-07T01:36:30;93108.66;;;0.84;78.81
10466;BME280;5280;42.600;23.556;2023-04-07T01:38:59;93110.47;;;0.82;78.94
10466;BME280;5280;42.600;23.556;2023-04-07T01:41:26;93070.16;;;0.36;80.28
10466;BME280;5280;42.600;23.556;2023-04-07T01:43:54;93085.78;;;0.55;80.01
10466;BME280;5280;42.600;23.556;2023-04-07T01:46:22;93112.19;;;0.64;80.56
10466;BME280;5280;42.600;23.556;2023-04-07T01:48:50;93098.00;;;0.53;78.62
10466;BME280;5280;42.600;23.556;2023-04-07T01:51:19;93096.50;;;0.47;70.34
10466;BME280;5280;42.600;23.556;2023-04-07T01:53:46;93096.38;;;0.69;73.20
10466;BME280;5280;42.600;23.556;2023-04-07T01:56:14;93096.44;;;0.67;74.37
10466;BME280;5280;42.600;23.556;2023-04-07T01:58:41;93105.72;;;0.73;72.39
10466;BME280;5280;42.600;23.556;2023-04-07T02:01:08;93076.75;;;0.62;72.37
10466;BME280;5280;42.600;23.556;2023-04-07T02:03:45;93095.09;;;0.77;72.16
10466;BME280;5280;42.600;23.556;2023-04-07T02:06:18;93103.38;;;0.85;68.77
10466;BME280;5280;42.600;23.556;2023-04-07T02:08:50;93102.19;;;0.93;69.44
10466;BME280;5280;42.600;23.556;2023-04-07T02:11:20;93101.34;;;0.92;68.32
10466;BME280;5280;42.600;23.556;2023-04-07T02:13:48;93087.81;;;1.03;66.86
10466;BME280;5280;42.600;23.556;2023-04-07T02:16:17;93085.00;;;1.07;66.48
10466;BME280;5280;42.600;23.556;2023-04-07T02:18:46;93067.59;;;0.91;62.85
10466;BME280;5280;42.600;23.556;2023-04-07T02:21:16;93082.84;;;1.15;65.43
10466;BME280;5280;42.600;23.556;2023-04-07T02:23:43;93100.44;;;1.29;65.42
10466;BME280;5280;42.600;23.556;2023-04-07T02:26:10;93019.63;;;0.79;65.42
10466;BME280;5280;42.600;23.556;2023-04-07T02:28:40;93101.88;;;1.35;65.79
10466;BME280;5280;42.600;23.556;2023-04-07T02:31:07;93102.56;;;1.38;67.37
10466;BME280;5280;42.600;23.556;2023-04-07T02:33:34;93095.69;;;1.37;68.41
10466;BME280;5280;42.600;23.556;2023-04-07T02:36:00;93079.59;;;1.29;69.06
10466;BME280;5280;42.600;23.556;2023-04-07T02:38:29;93089.78;;;1.34;70.65
10466;BME280;5280;42.600;23.556;2023-04-07T02:40:55;93091.38;;;1.36;71.29
10466;BME280;5280;42.600;23.556;2023-04-07T02:43:23;93094.22;;;1.32;72.91
10466;BME280;5280;42.600;23.556;2023-04-07T02:45:50;93094.22;;;1.32;73.22
10466;BME280;5280;42.600;23.556;2023-04-07T02:48:16;93086.06;;;1.20;72.86
10466;BME280;5280;42.600;23.556;2023-04-07T02:50:43;93091.06;;;1.25;72.31
10466;BME280;5280;42.600;23.556;2023-04-07T02:53:10;93096.25;;;1.25;71.50
10466;BME280;5280;42.600;23.556;2023-04-07T02:55:38;93093.81;;;1.22;70.74
10466;BME280;5280;42.600;23.556;2023-04-07T02:58:05;93094.84;;;1.19;71.34
10466;BME280;5280;42.600;23.556;2023-04-07T03:00:32;93095.03;;;1.15;72.57
10466;BME280;5280;42.600;23.556;2023-04-07T03:02:59;93096.03;;;1.12;72.56
10466;BME280;5280;42.600;23.556;2023-04-07T03:05:26;93096.09;;;1.11;73.46
10466;BME280;5280;42.600;23.556;2023-04-07T03:07:56;93097.22;;;1.05;74.52
10466;BME280;5280;42.600;23.556;2023-04-07T03:10:23;93106.50;;;1.11;74.41
10466;BME280;5280;42.600;23.556;2023-04-07T03:12:51;93109.19;;;1.09;74.25
10466;BME280;5280;42.600;23.556;2023-04-07T03:15:19;93109.03;;;1.12;71.41
10466;BME280;5280;42.600;23.556;2023-04-07T03:17:46;93110.84;;;1.10;71.74
10466;BME280;5280;42.600;23.556;2023-04-07T03:20:13;93102.38;;;1.07;73.48
10466;BME280;5280;42.600;23.556;2023-04-07T03:22:39;93117.31;;;1.20;74.39
10466;BME280;5280;42.600;23.556;2023-04-07T03:25:06;93120.69;;;1.22;75.50
10466;BME280;5280;42.600;23.556;2023-04-07T03:27:33;93102.75;;;1.16;75.96
10466;BME280;5280;42.600;23.556;2023-04-07T03:30:02;93116.03;;;1.29;75.44
10466;BME280;5280;42.600;23.556;2023-04-07T03:32:29;93093.66;;;1.25;75.39
10466;BME280;5280;42.600;23.556;2023-04-07T03:34:55;93097.22;;;1.24;75.78
10466;BME280;5280;42.600;23.556;2023-04-07T03:37:22;93106.03;;;1.39;76.62
10466;BME280;5280;42.600;23.556;2023-04-07T03:39:49;93104.09;;;1.42;76.24
10466;BME280;5280;42.600;23.556;2023-04-07T03:42:16;93104.88;;;1.44;76.84
10466;BME280;5280;42.600;23.556;2023-04-07T03:44:43;93103.50;;;1.37;77.07
10466;BME280;5280;42.600;23.556;2023-04-07T03:47:11;93044.28;;;1.06;75.35
10466;BME280;5280;42.600;23.556;2023-04-07T03:49:37;93094.28;;;1.30;75.96
10466;BME280;5280;42.600;23.556;2023-04-07T03:52:05;93043.72;;;1.00;76.29
10466;BME280;5280;42.600;23.556;2023-04-07T03:54:31;93093.03;;;1.20;76.07
10466;BME280;5280;42.600;23.556;2023-04-07T03:56:59;93106.84;;;1.22;75.31
10466;BME280;5280;42.600;23.556;2023-04-07T03:59:26;93113.22;;;1.15;76.36
10466;BME280;5280;42.600;23.556;2023-04-07T04:01:53;93103.00;;;1.12;78.04
10466;BME280;5280;42.600;23.556;2023-04-07T04:04:21;93113.91;;;1.01;73.87
10466;BME280;5280;42.600;23.556;2023-04-07T04:06:49;93126.69;;;1.06;73.40
10466;BME280;5280;42.600;23.556;2023-04-07T04:09:16;93117.19;;;1.05;74.08
10466;BME280;5280;42.600;23.556;2023-04-07T04:11:46;93114.75;;;1.02;73.48
10466;BME280;5280;42.600;23.556;2023-04-07T04:14:13;93115.22;;;1.10;74.61
10466;BME280;5280;42.600;23.556;2023-04-07T04:16:40;93090.66;;;0.98;77.10
10466;BME280;5280;42.600;23.556;2023-04-07T04:19:06;93111.56;;;1.14;74.47
10466;BME280;5280;42.600;23.556;2023-04-07T04:21:34;93122.97;;;1.11;74.86
10466;BME280;5280;42.600;23.556;2023-04-07T04:24:01;93130.53;;;1.16;72.49
10466;BME280;5280;42.600;23.556;2023-04-07T04:26:28;93142.03;;;1.12;71.23
10466;BME280;5280;42.600;23.556;2023-04-07T04:28:55;93128.72;;;1.18;73.66
10466;BME280;5280;42.600;23.556;2023-04-07T04:31:22;93119.06;;;1.20;74.13
10466;BME280;5280;42.600;23.556;2023-04-07T04:33:48;93143.03;;;1.26;69.28
10466;BME280;5280;42.600;23.556;2023-04-07T04:36:16;93139.25;;;1.34;69.19
10466;BME280;5280;42.600;23.556;2023-04-07T04:38:44;93148.19;;;1.45;68.83
10466;BME280;5280;42.600;23.556;2023-04-07T04:41:11;93147.63;;;1.57;70.22
10466;BME280;5280;42.600;23.556;2023-04-07T04:43:38;93138.72;;;1.61;68.51
10466;BME280;5280;42.600;23.556;2023-04-07T04:46:05;93082.22;;;1.29;68.78
10466;BME280;5280;42.600;23.556;2023-04-07T04:48:32;93127.25;;;1.65;69.62
10466;BME280;5280;42.600;23.556;2023-04-07T04:50:58;93131.69;;;1.81;70.75
10466;BME280;5280;42.600;23.556;2023-04-07T04:53:25;93145.72;;;1.95;71.53
10466;BME280;5280;42.600;23.556;2023-04-07T04:55:53;93150.69;;;2.00;71.89
10466;BME280;5280;42.600;23.556;2023-04-07T04:58:20;93159.72;;;2.10;71.35
10466;BME280;5280;42.600;23.556;2023-04-07T05:00:47;93155.28;;;2.12;70.71
10466;BME280;5280;42.600;23.556;2023-04-07T05:03:13;93160.03;;;2.21;69.78
10466;BME280;5280;42.600;23.556;2023-04-07T05:05:40;93163.06;;;2.29;69.80
10466;BME280;5280;42.600;23.556;2023-04-07T05:08:09;93156.03;;;2.31;71.07
10466;BME280;5280;42.600;23.556;2023-04-07T05:10:37;93138.78;;;2.29;70.38
10466;BME280;5280;42.600;23.556;2023-04-07T05:13:05;93156.25;;;2.44;69.75
10466;BME280;5280;42.600;23.556;2023-04-07T05:15:32;93126.25;;;2.35;69.73
10466;BME280;5280;42.600;23.556;2023-04-07T05:17:59;93160.13;;;2.52;68.63
10466;BME280;5280;42.600;23.556;2023-04-07T05:20:26;93131.47;;;2.35;68.43
10466;BME280;5280;42.600;23.556;2023-04-07T05:22:52;93157.66;;;2.67;68.93
10466;BME280;5280;42.600;23.556;2023-04-07T05:25:19;93170.38;;;2.73;69.24
10466;BME280;5280;42.600;23.556;2023-04-07T05:27:46;93171.88;;;2.77;67.39
10466;BME280;5280;42.600;23.556;2023-04-07T05:30:15;93103.56;;;2.37;67.23
10466;BME280;5280;42.600;23.556;2023-04-07T05:32:41;93147.97;;;2.69;67.76
10466;BME280;5280;42.600;23.556;2023-04-07T05:35:09;93170.31;;;2.90;67.42
10466;BME280;5280;42.600;23.556;2023-04-07T05:37:36;93160.38;;;2.96;65.54
10466;BME280;5280;42.600;23.556;2023-04-07T05:40:03;93162.75;;;3.01;65.35
10466;BME280;5280;42.600;23.556;2023-04-07T05:42:30;93156.75;;;2.99;65.41
10466;BME280;5280;42.600;23.556;2023-04-07T05:44:56;93168.63;;;3.04;64.91
10466;BME280;5280;42.600;23.556;2023-04-07T05:47:25;93173.00;;;3.04;65.68
10466;BME280;5280;42.600;23.556;2023-04-07T05:49:52;93172.00;;;3.07;66.04
10466;BME280;5280;42.600;23.556;2023-04-07T05:52:18;93175.41;;;3.09;67.32
10466;BME280;5280;42.600;23.556;2023-04-07T05:54:45;93169.16;;;3.11;65.55
10466;BME280;5280;42.600;23.556;2023-04-07T05:57:12;93172.63;;;3.27;65.16
10466;BME280;5280;42.600;23.556;2023-04-07T05:59:39;93176.06;;;3.28;64.65
10466;BME280;5280;42.600;23.556;2023-04-07T06:02:06;93177.50;;;3.33;64.96
10466;BME280;5280;42.600;23.556;2023-04-07T06:04:34;93169.41;;;3.38;65.01
10466;BME280;5280;42.600;23.556;2023-04-07T06:07:01;93169.56;;;3.51;66.06
10466;BME280;5280;42.600;23.556;2023-04-07T06:09:28;93152.72;;;3.40;65.43
10466;BME280;5280;42.600;23.556;2023-04-07T06:11:55;93171.19;;;3.53;65.47
10466;BME280;5280;42.600;23.556;2023-04-07T06:14:22;93136.97;;;3.42;65.38
10466;BME280;5280;42.600;23.556;2023-04-07T06:16:49;93169.09;;;3.74;64.57
10466;BME280;5280;42.600;23.556;2023-04-07T06:19:16;93165.69;;;3.73;63.76
10466;BME280;5280;42.600;23.556;2023-04-07T06:21:44;93180.22;;;3.93;62.97
10466;BME280;5280;42.600;23.556;2023-04-07T06:24:11;93150.97;;;3.86;63.27
10466;BME280;5280;42.600;23.556;2023-04-07T06:26:41;93173.31;;;3.92;62.91
10466;BME280;5280;42.600;23.556;2023-04-07T06:29:08;93168.13;;;4.06;62.71
10466;BME280;5280;42.600;23.556;2023-04-07T06:31:34;93167.84;;;4.11;62.42
10466;BME280;5280;42.600;23.556;2023-04-07T06:34:01;93175.34;;;4.17;62.89
10466;BME280;5280;42.600;23.556;2023-04-07T06:36:28;93172.72;;;4.17;63.26
10466;BME280;5280;42.600;23.556;2023-04-07T06:38:56;93174.34;;;4.33;63.03
10466;BME280;5280;42.600;23.556;2023-04-07T06:41:23;93184.75;;;4.49;62.33
10466;BME280;5280;42.600;23.556;2023-04-07T06:43:50;93165.41;;;4.52;61.85
10466;BME280;5280;42.600;23.556;2023-04-07T06:46:17;93166.06;;;4.55;60.70
10466;BME280;5280;42.600;23.556;2023-04-07T06:48:44;93175.53;;;4.72;61.52
10466;BME280;5280;42.600;23.556;2023-04-07T06:51:11;93185.38;;;4.97;59.52
10466;BME280;5280;42.600;23.556;2023-04-07T06:53:41;93184.50;;;5.10;58.54
10466;BME280;5280;42.600;23.556;2023-04-07T06:56:10;93146.09;;;4.97;56.88
10466;BME280;5280;42.600;23.556;2023-04-07T06:58:37;93180.38;;;5.35;57.26
10466;BME280;5280;42.600;23.556;2023-04-07T07:01:05;93174.75;;;5.41;56.40
10466;BME280;5280;42.600;23.556;2023-04-07T07:03:32;93175.50;;;5.29;52.66
10466;BME280;5280;42.600;23.556;2023-04-07T07:05:59;93146.69;;;5.29;52.15
10466;BME280;5280;42.600;23.556;2023-04-07T07:08:26;93175.47;;;5.57;52.60
10466;BME280;5280;42.600;23.556;2023-04-07T07:10:54;93183.88;;;5.62;50.49
10466;BME280;5280;42.600;23.556;2023-04-07T07:13:23;93180.84;;;5.82;51.01
10466;BME280;5280;42.600;23.556;2023-04-07T07:15:51;93180.25;;;5.91;53.73
10466;BME280;5280;42.600;23.556;2023-04-07T07:18:18;93177.38;;;6.09;52.88
10466;BME280;5280;42.600;23.556;2023-04-07T07:20:45;93180.22;;;6.18;52.16
10466;BME280;5280;42.600;23.556;2023-04-07T07:23:12;93177.25;;;6.37;51.07
10466;BME280;5280;42.600;23.556;2023-04-07T07:25:39;93190.28;;;6.51;50.94
10466;BME280;5280;42.600;23.556;2023-04-07T07:28:06;93187.34;;;6.56;49.60
10466;BME280;5280;42.600;23.556;2023-04-07T07:30:37;93188.84;;;6.72;48.87
10466;BME280;5280;42.600;23.556;2023-04-07T07:33:04;93134.94;;;6.41;49.08
10466;BME280;5280;42.600;23.556;2023-04-07T07:35:31;93194.09;;;6.85;49.16
10466;BME280;5280;42.600;23.556;2023-04-07T07:37:58;93201.25;;;6.96;50.43
10466;BME280;5280;42.600;23.556;2023-04-07T07:40:25;93191.16;;;6.89;44.98
10466;BME280;5280;42.600;23.556;2023-04-07T07:42:51;93188.84;;;6.98;46.34
10466;BME280;5280;42.600;23.556;2023-04-07T07:45:18;93185.78;;;7.04;48.29
10466;BME280;5280;42.600;23.556;2023-04-07T07:47:46;93204.81;;;7.20;47.48
10466;BME280;5280;42.600;23.556;2023-04-07T07:50:13;93180.34;;;7.07;49.32
10466;BME280;5280;42.600;23.556;2023-04-07T07:52:40;93195.16;;;7.20;48.12
10466;BME280;5280;42.600;23.556;2023-04-07T07:55:07;93199.16;;;7.26;47.33
10466;BME280;5280;42.600;23.556;2023-04-07T07:57:34;93202.72;;;7.25;48.05
10466;BME280;5280;42.600;23.556;2023-04-07T08:00:01;93198.81;;;7.18;48.15
10466;BME280;5280;42.600;23.556;2023-04-07T08:02:28;93209.97;;;7.21;46.60
10466;BME280;5280;42.600;23.556;2023-04-07T08:04:59;93213.97;;;7.14;46.60
10466;BME280;5280;42.600;23.556;2023-04-07T08:07:26;93192.44;;;6.97;47.41
10466;BME280;5280;42.600;23.556;2023-04-07T08:09:52;93198.31;;;7.00;50.74
10466;BME280;5280;42.600;23.556;2023-04-07T08:12:20;93195.38;;;7.05;49.06
10466;BME280;5280;42.600;23.556;2023-04-07T08:14:47;93204.81;;;7.20;49.96
10466;BME280;5280;42.600;23.556;2023-04-07T08:17:14;93171.81;;;7.03;48.78
10466;BME280;5280;42.600;23.556;2023-04-07T08:19:41;93187.59;;;7.16;49.88
10466;BME280;5280;42.600;23.556;2023-04-07T08:22:09;93209.84;;;7.23;50.16
10466;BME280;5280;42.600;23.556;2023-04-07T08:24:36;93203.66;;;7.24;48.31
10466;BME280;5280;42.600;23.556;2023-04-07T08:27:03;93201.97;;;7.35;48.45
10466;BME280;5280;42.600;23.556;2023-04-07T08:29:30;93194.94;;;7.36;49.50
10466;BME280;5280;42.600;23.556;2023-04-07T08:31:57;93216.78;;;7.62;48.41
10466;BME280;5280;42.600;23.556;2023-04-07T08:34:24;93201.56;;;7.78;47.21
10466;BME280;5280;42.600;23.556;2023-04-07T08:36:50;93184.06;;;7.90;47.15
10466;BME280;5280;42.600;23.556;2023-04-07T08:39:19;93202.44;;;8.02;47.34
10466;BME280;5280;42.600;23.556;2023-04-07T08:41:47;93199.25;;;8.10;45.97
10466;BME280;5280;42.600;23.556;2023-04-07T08:44:16;93188.72;;;8.10;45.11
10466;BME280;5280;42.600;23.556;2023-04-07T08:46:43;93188.72;;;8.10;47.24
10466;BME280;5280;42.600;23.556;2023-04-07T08:49:14;93195.81;;;8.33;45.78
10466;BME280;5280;42.600;23.556;2023-04-07T08:51:44;93191.69;;;8.29;44.79
10466;BME280;5280;42.600;23.556;2023-04-07T08:54:13;93193.56;;;8.40;46.21
10466;BME280;5280;42.600;23.556;2023-04-07T08:56:42;93194.91;;;8.45;44.52
10466;BME280;5280;42.600;23.556;2023-04-07T08:59:10;93187.47;;;8.39;45.49
10466;BME280;5280;42.600;23.556;2023-04-07T09:01:38;93192.31;;;8.56;45.83
10466;BME280;5280;42.600;23.556;2023-04-07T09:04:06;93194.97;;;8.56;43.73
10466;BME280;5280;42.600;23.556;2023-04-07T09:06:33;93190.94;;;8.40;45.37
10466;BME280;5280;42.600;23.556;2023-04-07T09:09:01;93203.41;;;8.49;45.25
10466;BME280;5280;42.600;23.556;2023-04-07T09:11:34;93201.81;;;8.35;44.44
10466;BME280;5280;42.600;23.556;2023-04-07T09:14:03;93193.22;;;8.44;44.37
10466;BME280;5280;42.600;23.556;2023-04-07T09:16:30;93200.53;;;8.41;44.10
10466;BME280;5280;42.600;23.556;2023-04-07T09:18:57;93204.34;;;8.37;43.02
10466;BME280;5280;42.600;23.556;2023-04-07T09:21:25;93205.94;;;8.27;44.13
10466;BME280;5280;42.600;23.556;2023-04-07T09:23:52;93206.63;;;8.41;44.47
10466;BME280;5280;42.600;23.556;2023-04-07T09:26:21;93197.53;;;8.45;44.13
10466;BME280;5280;42.600;23.556;2023-04-07T09:28:51;93204.84;;;8.53;43.30
10466;BME280;5280;42.600;23.556;2023-04-07T09:31:19;93191.13;;;8.60;43.21
10466;BME280;5280;42.600;23.556;2023-04-07T09:33:47;93189.16;;;8.75;43.62
10466;BME280;5280;42.600;23.556;2023-04-07T09:36:14;93188.34;;;8.86;43.90
10466;BME280;5280;42.600;23.556;2023-04-07T09:38:44;93196.00;;;8.89;44.01
10466;BME280;5280;42.600;23.556;2023-04-07T09:41:12;93192.31;;;9.02;45.23
10466;BME280;5280;42.600;23.556;2023-04-07T09:43:41;93197.97;;;9.09;42.44
10466;BME280;5280;42.600;23.556;2023-04-07T09:46:10;93186.78;;;8.94;42.18
10466;BME280;5280;42.600;23.556;2023-04-07T09:48:39;93191.13;;;8.95;42.43
10466;BME280;5280;42.600;23.556;2023-04-07T09:51:08;93195.41;;;8.85;41.56
10466;BME280;5280;42.600;23.556;2023-04-07T09:53:43;93198.53;;;8.90;42.01
10466;BME280;5280;42.600;23.556;2023-04-07T09:56:13;93203.34;;;8.96;42.66
10466;BME280;5280;42.600;23.556;2023-04-07T09:58:43;93193.69;;;8.73;43.05
10466;BME280;5280;42.600;23.556;2023-04-07T10:01:11;93188.31;;;8.75;43.84
10466;BME280;5280;42.600;23.556;2023-04-07T10:03:40;93184.47;;;8.79;43.80
10466;BME280;5280;42.600;23.556;2023-04-07T10:06:07;93178.38;;;8.78;42.69
10466;BME280;5280;42.600;23.556;2023-04-07T10:08:36;93205.81;;;8.87;44.01
10466;BME280;5280;42.600;23.556;2023-04-07T10:11:04;93207.28;;;9.02;42.59
10466;BME280;5280;42.600;23.556;2023-04-07T10:13:33;93202.00;;;9.02;42.14
10466;BME280;5280;42.600;23.556;2023-04-07T10:16:02;93202.28;;;9.10;41.43
10466;BME280;5280;42.600;23.556;2023-04-07T10:18:30;93193.50;;;8.98;41.71
10466;BME280;5280;42.600;23.556;2023-04-07T10:21:01;93196.28;;;9.08;42.28
10466;BME280;5280;42.600;23.556;2023-04-07T10:23:36;93193.84;;;8.94;41.60
10466;BME280;5280;42.600;23.556;2023-04-07T10:26:06;93184.72;;;8.87;41.74
10466;BME280;5280;42.600;23.556;2023-04-07T10:28:37;93208.94;;;8.92;43.41
10466;BME280;5280;42.600;23.556;2023-04-07T10:31:06;93208.78;;;8.82;43.82
10466;BME280;5280;42.600;23.556;2023-04-07T10:33:46;93212.19;;;8.95;43.40
10466;BME280;5280;42.600;23.556;2023-04-07T10:36:16;93202.16;;;9.00;45.27
10466;BME280;5280;42.600;23.556;2023-04-07T10:39:18;93207.13;;;8.92;42.62
10466;BME280;5280;42.600;23.556;2023-04-07T10:41:45;93199.63;;;8.99;45.49
10466;BME280;5280;42.600;23.556;2023-04-07T10:47:25;93206.53;;;8.89;43.63
10466;BME280;5280;42.600;23.556;2023-04-07T10:50:19;93212.31;;;8.94;46.28
10466;BME280;5280;42.600;23.556;2023-04-07T10:53:00;93216.03;;;9.02;44.35
10466;BME280;5280;42.600;23.556;2023-04-07T10:55:35;93211.03;;;9.11;45.05
10466;BME280;5280;42.600;23.556;2023-04-07T10:58:15;93201.69;;;9.29;43.87
10466;BME280;5280;42.600;23.556;2023-04-07T11:01:15;93212.00;;;9.21;44.66
10466;BME280;5280;42.600;23.556;2023-04-07T11:04:01;93185.22;;;8.92;44.15
10466;BME280;5280;42.600;23.556;2023-04-07T11:06:29;93202.84;;;9.02;44.57
10466;BME280;5280;42.600;23.556;2023-04-07T11:08:57;93215.47;;;9.10;43.88
10466;BME280;5280;42.600;23.556;2023-04-07T11:11:38;93217.50;;;9.18;44.36
10466;BME280;5280;42.600;23.556;2023-04-07T11:14:05;93217.84;;;9.13;45.00
10466;BME280;5280;42.600;23.556;2023-04-07T11:16:40;93219.50;;;9.03;44.23
10466;BME280;5280;42.600;23.556;2023-04-07T11:19:07;93219.88;;;9.10;44.26
10466;BME280;5280;42.600;23.556;2023-04-07T11:21:34;93194.94;;;9.02;45.84
10466;BME280;5280;42.600;23.556;2023-04-07T11:24:03;93225.44;;;9.29;45.16
10466;BME280;5280;42.600;23.556;2023-04-07T11:26:36;93225.91;;;9.23;44.48
10466;BME280;5280;42.600;23.556;2023-04-07T11:29:04;93222.28;;;9.13;44.85
10466;BME280;5280;42.600;23.556;2023-04-07T11:31:31;93225.53;;;9.16;45.21
10466;BME280;5280;42.600;23.556;2023-04-07T11:33:59;93216.66;;;9.17;45.90
10466;BME280;5280;42.600;23.556;2023-04-07T11:36:28;93231.78;;;9.15;44.63
10466;BME280;5280;42.600;23.556;2023-04-07T11:38:55;93232.47;;;9.17;44.14
10466;BME280;5280;42.600;23.556;2023-04-07T11:41:24;93204.16;;;8.97;45.68
10466;BME280;5280;42.600;23.556;2023-04-07T11:44:08;93233.22;;;9.19;44.38
10466;BME280;5280;42.600;23.556;2023-04-07T11:46:35;93225.91;;;9.23;43.71
10466;BME280;5280;42.600;23.556;2023-04-07T11:49:10;93224.13;;;9.34;44.42
10466;BME280;5280;42.600;23.556;2023-04-07T11:51:37;93214.53;;;9.33;44.10
10466;BME280;5280;42.600;23.556;2023-04-07T11:54:05;93186.22;;;9.13;44.73
10466;BME280;5280;42.600;23.556;2023-04-07T11:56:43;93219.00;;;9.55;44.76
10466;BME280;5280;42.600;23.556;2023-04-07T11:59:18;93224.13;;;9.57;43.22
10466;BME280;5280;42.600;23.556;2023-04-07T12:01:47;93214.19;;;9.60;43.24
10466;BME280;5280;42.600;23.556;2023-04-07T12:04:14;93217.31;;;9.65;46.39
10466;BME280;5280;42.600;23.556;2023-04-07T12:06:42;93210.22;;;9.55;44.55
10466;BME280;5280;42.600;23.556;2023-04-07T12:09:26;93217.31;;;9.65;45.02
10466;BME280;5280;42.600;23.556;2023-04-07T12:11:55;93223.66;;;9.63;43.39
10466;BME280;5280;42.600;23.556;2023-04-07T12:14:23;93225.00;;;9.46;43.55
10466;BME280;5280;42.600;23.556;2023-04-07T12:16:50;93156.72;;;8.97;44.43
10466;BME280;5280;42.600;23.556;2023-04-07T12:19:20;93212.97;;;9.20;44.38
10466;BME280;5280;42.600;23.556;2023-04-07T12:21:47;93214.38;;;9.13;44.91
10466;BME280;5280;42.600;23.556;2023-04-07T12:24:14;93215.69;;;9.07;46.25
10466;BME280;5280;42.600;23.556;2023-04-07T12:26:41;93221.44;;;9.01;45.84
10466;BME280;5280;42.600;23.556;2023-04-07T12:29:09;93220.72;;;9.10;46.32
10466;BME280;5280;42.600;23.556;2023-04-07T12:31:36;93217.25;;;9.10;44.95
10466;BME280;5280;42.600;23.556;2023-04-07T12:34:03;93217.88;;;9.24;45.28
10466;BME280;5280;42.600;23.556;2023-04-07T12:36:30;93224.97;;;9.35;44.17
10466;BME280;5280;42.600;23.556;2023-04-07T12:38:57;93221.00;;;9.29;47.53
10466;BME280;5280;42.600;23.556;2023-04-07T12:41:27;93222.81;;;9.40;45.60
10466;BME280;5280;42.600;23.556;2023-04-07T12:43:54;93223.03;;;9.37;46.60
10466;BME280;5280;42.600;23.556;2023-04-07T12:46:22;93222.84;;;9.51;45.00
10466;BME280;5280;42.600;23.556;2023-04-07T12:48:49;93222.00;;;9.50;45.04
10466;BME280;5280;42.600;23.556;2023-04-07T12:51:16;93219.22;;;9.52;45.61
10466;BME280;5280;42.600;23.556;2023-04-07T12:53:42;93207.72;;;9.53;44.38
10466;BME280;5280;42.600;23.556;2023-04-07T12:56:10;93216.09;;;9.58;43.24
10466;BME280;5280;42.600;23.556;2023-04-07T12:58:37;93191.63;;;9.34;45.33
10466;BME280;5280;42.600;23.556;2023-04-07T13:01:04;93198.00;;;9.31;45.06
10466;BME280;5280;42.600;23.556;2023-04-07T13:03:32;93216.94;;;9.36;45.92
10466;BME280;5280;42.600;23.556;2023-04-07T13:05:59;93199.66;;;9.21;45.05
10466;BME280;5280;42.600;23.556;2023-04-07T13:08:26;93211.75;;;9.24;46.36
10466;BME280;5280;42.600;23.556;2023-04-07T13:10:54;93210.09;;;9.34;45.88
10466;BME280;5280;42.600;23.556;2023-04-07T13:13:21;93197.72;;;9.01;46.29
10466;BME280;5280;42.600;23.556;2023-04-07T13:15:47;93213.38;;;9.02;46.90
10466;BME280;5280;42.600;23.556;2023-04-07T13:18:14;93210.19;;;9.10;46.98
10466;BME280;5280;42.600;23.556;2023-04-07T13:20:42;93206.13;;;9.06;46.84